Gas Snapper — V7TZ3 — position and weather

sailwx.info

Track history (hours):
 
Tides and Currents Weather Stations Pressure Air Temp Water Temp Dewpoint Dewpoint Depression Visibility Wind Speed Wind Dir Waves Ship Positions

Gas Snapper

Last reported at 2014-Oct-03 16:33 UTC. Time now 2014-Oct-20 08:17 UTC.
Position N 40°43' E 028°43'.
Warning: this ship's position is 16 days out of date.

Length 174 m; draft 6.7 m.

Type: Ship (hazmat cat D). MMSI: 538003911.

Date/timePositionNaut miles runAvg speedWind from/ knotsBaromVisibWave heightAir tempDewpointWater temp
2014-Oct-03 16:33N 40°43' E 028°43'1 1.5
2014-Oct-03 15:33N 40°44' E 028°45'2 1.8
2014-Oct-03 14:33N 40°45' E 028°47'3 3.4
2014-Oct-03 13:32N 40°45' E 028°42'2 0.3
2014-Oct-03 07:17N 40°45' E 028°40'2 2.1
2014-Oct-03 06:32N 40°45' E 028°42'2 2.1
2014-Oct-03 05:27N 40°47' E 028°45'1 1.4
2014-Oct-03 04:31N 40°47' E 028°46'10 9.7
2014-Oct-03 03:30N 40°37' E 028°42'2 0.6
2014-Oct-03 00:18N 40°38' E 028°45'2 1.8
2014-Oct-02 23:13N 40°39' E 028°47'1 1.8
2014-Oct-02 22:24N 40°40' E 028°49'2 1.7
2014-Oct-02 21:30N 40°41' E 028°50'2 1.5
2014-Oct-02 20:24N 40°42' E 028°52'1 1.5
2014-Oct-02 19:30N 40°43' E 028°53'2 1.6
2014-Oct-02 18:24N 40°44' E 028°55'2 1.5
2014-Oct-02 17:25N 40°45' E 028°57'1 1.5
2014-Oct-02 16:30N 40°46' E 028°58'1 1.4
2014-Oct-02 15:29N 40°47' E 028°59'1111.5
2014-Oct-02 14:33N 40°43' E 028°46'3 0.7
2014-Oct-02 09:23N 40°41' E 028°43'2 1.4
2014-Oct-02 08:11N 40°42' E 028°45'1 1.3
2014-Oct-02 07:29N 40°42' E 028°46'2 1.3
2014-Oct-02 06:17N 40°43' E 028°48'1 1.4
2014-Oct-02 05:28N 40°43' E 028°49'1 1.4
2014-Oct-02 04:29N 40°44' E 028°50'2 1.6
2014-Oct-02 03:29N 40°45' E 028°52'2 1.7
2014-Oct-02 02:23N 40°47' E 028°54'7 8.6
2014-Oct-02 01:32N 40°47' E 028°44'3 0.9
2014-Oct-01 22:14N 40°45' E 028°41'5 1.3
2014-Oct-01 18:08N 40°46' E 028°49'1 1.4
2014-Oct-01 17:32N 40°46' E 028°50'2 1.4
2014-Oct-01 16:27N 40°47' E 028°51'8 9.3
2014-Oct-01 15:33N 40°39' E 028°50'1 1.1
2014-Oct-01 14:33N 40°39' E 028°51'1 1.4
2014-Oct-01 13:33N 40°40' E 028°52'1 1.2
2014-Oct-01 12:33N 40°41' E 028°53'1 1.2
2014-Oct-01 11:33N 40°42' E 028°54'1 1.1
2014-Oct-01 10:33N 40°43' E 028°55'1 1.2
2014-Oct-01 09:33N 40°44' E 028°55'2 1.7
2014-Oct-01 08:33N 40°45' E 028°53'1 0.9
2014-Oct-01 07:33N 40°46' E 028°54'1 0.9
2014-Oct-01 06:33N 40°46' E 028°55'1 0.8
2014-Oct-01 05:33N 40°47' E 028°55'1 0.8
2014-Oct-01 04:33N 40°48' E 028°56'3 3.1
2014-Oct-01 03:33N 40°51' E 028°55'2 1.7
2014-Oct-01 02:32N 40°49' E 028°54'8 8.1
2014-Oct-01 01:33N 40°49' E 028°43'1413.3
2014-Oct-01 00:28N 40°47' E 028°25'1213.1
2014-Sep-30 23:33N 40°46' E 028°09'1413.8
2014-Sep-30 22:33N 40°44' E 027°51'19611.5
2014-Sep-30 05:33N 38°05' E 025°23'1515.2
2014-Sep-30 04:34N 37°55' E 025°37'1514.6
2014-Sep-30 03:34N 37°41' E 025°43'1514.9
2014-Sep-30 02:33N 37°26' E 025°43'1413.9
2014-Sep-30 01:34N 37°14' E 025°52'1515.0
2014-Sep-30 00:34N 37°03' E 026°05'1514.8
2014-Sep-29 23:34N 36°52' E 026°18'1514.8
2014-Sep-29 22:33N 36°41' E 026°30'1514.9
2014-Sep-29 21:33N 36°30' E 026°43'2015.6
2014-Sep-29 20:15N 36°16' E 027°01'  
Track history (hours):
 
Tides and Currents Weather Stations Pressure Air Temp Water Temp Dewpoint Dewpoint Depression Visibility Wind Speed Wind Dir Waves Ship Positions

Gas Snapper

Last reported at 2014-Oct-03 16:33 UTC. Time now 2014-Oct-20 08:17 UTC.
Position N 40°43' E 028°43'.
Warning: this ship's position is 16 days out of date.

Length 174 m; draft 6.7 m.

Type: Ship (hazmat cat D). MMSI: 538003911.

Date/timePositionNaut miles runAvg speedWind from/ knotsBaromVisibWave heightAir tempDewpointWater temp
2014-Oct-03 16:33N 40°43' E 028°43'1 1.5
2014-Oct-03 15:33N 40°44' E 028°45'2 1.8
2014-Oct-03 14:33N 40°45' E 028°47'3 3.4
2014-Oct-03 13:32N 40°45' E 028°42'2 0.3
2014-Oct-03 07:17N 40°45' E 028°40'2 2.1
2014-Oct-03 06:32N 40°45' E 028°42'2 2.1
2014-Oct-03 05:27N 40°47' E 028°45'1 1.4
2014-Oct-03 04:31N 40°47' E 028°46'10 9.7
2014-Oct-03 03:30N 40°37' E 028°42'2 0.6
2014-Oct-03 00:18N 40°38' E 028°45'2 1.8
2014-Oct-02 23:13N 40°39' E 028°47'1 1.8
2014-Oct-02 22:24N 40°40' E 028°49'2 1.7
2014-Oct-02 21:30N 40°41' E 028°50'2 1.5
2014-Oct-02 20:24N 40°42' E 028°52'1 1.5
2014-Oct-02 19:30N 40°43' E 028°53'2 1.6
2014-Oct-02 18:24N 40°44' E 028°55'2 1.5
2014-Oct-02 17:25N 40°45' E 028°57'1 1.5
2014-Oct-02 16:30N 40°46' E 028°58'1 1.4
2014-Oct-02 15:29N 40°47' E 028°59'1111.5
2014-Oct-02 14:33N 40°43' E 028°46'3 0.7
2014-Oct-02 09:23N 40°41' E 028°43'2 1.4
2014-Oct-02 08:11N 40°42' E 028°45'1 1.3
2014-Oct-02 07:29N 40°42' E 028°46'2 1.3
2014-Oct-02 06:17N 40°43' E 028°48'1 1.4
2014-Oct-02 05:28N 40°43' E 028°49'1 1.4
2014-Oct-02 04:29N 40°44' E 028°50'2 1.6
2014-Oct-02 03:29N 40°45' E 028°52'2 1.7
2014-Oct-02 02:23N 40°47' E 028°54'7 8.6
2014-Oct-02 01:32N 40°47' E 028°44'3 0.9
2014-Oct-01 22:14N 40°45' E 028°41'5 1.3
2014-Oct-01 18:08N 40°46' E 028°49'1 1.4
2014-Oct-01 17:32N 40°46' E 028°50'2 1.4
2014-Oct-01 16:27N 40°47' E 028°51'8 9.3
2014-Oct-01 15:33N 40°39' E 028°50'1 1.1
2014-Oct-01 14:33N 40°39' E 028°51'1 1.4
2014-Oct-01 13:33N 40°40' E 028°52'1 1.2
2014-Oct-01 12:33N 40°41' E 028°53'1 1.2
2014-Oct-01 11:33N 40°42' E 028°54'1 1.1
2014-Oct-01 10:33N 40°43' E 028°55'1 1.2
2014-Oct-01 09:33N 40°44' E 028°55'2 1.7
2014-Oct-01 08:33N 40°45' E 028°53'1 0.9
2014-Oct-01 07:33N 40°46' E 028°54'1 0.9
2014-Oct-01 06:33N 40°46' E 028°55'1 0.8
2014-Oct-01 05:33N 40°47' E 028°55'1 0.8
2014-Oct-01 04:33N 40°48' E 028°56'3 3.1
2014-Oct-01 03:33N 40°51' E 028°55'2 1.7
2014-Oct-01 02:32N 40°49' E 028°54'8 8.1
2014-Oct-01 01:33N 40°49' E 028°43'1413.3
2014-Oct-01 00:28N 40°47' E 028°25'1213.1
2014-Sep-30 23:33N 40°46' E 028°09'1413.8
2014-Sep-30 22:33N 40°44' E 027°51'19611.5
2014-Sep-30 05:33N 38°05' E 025°23'1515.2
2014-Sep-30 04:34N 37°55' E 025°37'1514.6
2014-Sep-30 03:34N 37°41' E 025°43'1514.9
2014-Sep-30 02:33N 37°26' E 025°43'1413.9
2014-Sep-30 01:34N 37°14' E 025°52'1515.0
2014-Sep-30 00:34N 37°03' E 026°05'1514.8
2014-Sep-29 23:34N 36°52' E 026°18'1514.8
2014-Sep-29 22:33N 36°41' E 026°30'1514.9
2014-Sep-29 21:33N 36°30' E 026°43'2015.6
2014-Sep-29 20:15N 36°16' E 027°01'  

Dump ship's entire track history